sensor_id;sensor_type;location;lat;lon;timestamp;P1;durP1;ratioP1;P2;durP2;ratioP2
7661;SDS011;30314;48.184;11.510;2023-11-18T00:01:34;7.40;;;5.20;;
7661;SDS011;30314;48.184;11.510;2023-11-18T00:04:01;9.00;;;5.33;;
7661;SDS011;30314;48.184;11.510;2023-11-18T00:06:27;7.70;;;5.70;;
7661;SDS011;30314;48.184;11.510;2023-11-18T00:08:54;7.70;;;4.97;;
7661;SDS011;30314;48.184;11.510;2023-11-18T00:11:21;7.40;;;5.20;;
7661;SDS011;30314;48.184;11.510;2023-11-18T00:13:48;8.50;;;5.80;;
7661;SDS011;30314;48.184;11.510;2023-11-18T00:16:14;7.40;;;5.13;;
7661;SDS011;30314;48.184;11.510;2023-11-18T00:18:43;9.80;;;6.30;;
7661;SDS011;30314;48.184;11.510;2023-11-18T00:21:10;8.87;;;5.90;;
7661;SDS011;30314;48.184;11.510;2023-11-18T00:23:38;10.40;;;7.23;;
7661;SDS011;30314;48.184;11.510;2023-11-18T00:26:05;11.33;;;6.70;;
7661;SDS011;30314;48.184;11.510;2023-11-18T00:28:33;10.97;;;6.00;;
7661;SDS011;30314;48.184;11.510;2023-11-18T00:31:00;10.83;;;7.00;;
7661;SDS011;30314;48.184;11.510;2023-11-18T00:33:27;9.07;;;6.40;;
7661;SDS011;30314;48.184;11.510;2023-11-18T00:35:53;8.27;;;5.70;;
7661;SDS011;30314;48.184;11.510;2023-11-18T00:38:20;7.30;;;5.57;;
7661;SDS011;30314;48.184;11.510;2023-11-18T00:40:48;10.50;;;6.40;;
7661;SDS011;30314;48.184;11.510;2023-11-18T00:43:14;7.80;;;6.07;;
7661;SDS011;30314;48.184;11.510;2023-11-18T00:45:41;7.73;;;5.00;;
7661;SDS011;30314;48.184;11.510;2023-11-18T00:48:09;6.80;;;5.00;;
7661;SDS011;30314;48.184;11.510;2023-11-18T00:50:36;8.00;;;5.17;;
7661;SDS011;30314;48.184;11.510;2023-11-18T00:53:03;7.13;;;4.40;;
7661;SDS011;30314;48.184;11.510;2023-11-18T00:55:31;6.60;;;5.10;;
7661;SDS011;30314;48.184;11.510;2023-11-18T00:57:58;8.73;;;4.70;;
7661;SDS011;30314;48.184;11.510;2023-11-18T01:00:25;6.73;;;5.00;;
7661;SDS011;30314;48.184;11.510;2023-11-18T01:02:53;6.30;;;4.70;;
7661;SDS011;30314;48.184;11.510;2023-11-18T01:05:21;5.40;;;4.13;;
7661;SDS011;30314;48.184;11.510;2023-11-18T01:07:48;6.70;;;4.10;;
7661;SDS011;30314;48.184;11.510;2023-11-18T01:10:15;5.80;;;3.90;;
7661;SDS011;30314;48.184;11.510;2023-11-18T01:12:42;4.70;;;3.40;;
7661;SDS011;30314;48.184;11.510;2023-11-18T01:15:12;5.00;;;3.80;;
7661;SDS011;30314;48.184;11.510;2023-11-18T01:17:39;5.77;;;4.00;;
7661;SDS011;30314;48.184;11.510;2023-11-18T01:20:06;4.33;;;3.10;;
7661;SDS011;30314;48.184;11.510;2023-11-18T01:22:37;3.30;;;3.00;;
7661;SDS011;30314;48.184;11.510;2023-11-18T01:25:05;3.77;;;2.90;;
7661;SDS011;30314;48.184;11.510;2023-11-18T01:27:32;3.93;;;2.80;;
7661;SDS011;30314;48.184;11.510;2023-11-18T01:30:00;4.57;;;3.50;;
7661;SDS011;30314;48.184;11.510;2023-11-18T01:32:27;2.87;;;2.40;;
7661;SDS011;30314;48.184;11.510;2023-11-18T01:34:56;3.83;;;2.73;;
7661;SDS011;30314;48.184;11.510;2023-11-18T01:37:24;4.30;;;3.17;;
7661;SDS011;30314;48.184;11.510;2023-11-18T01:39:51;3.53;;;3.00;;
7661;SDS011;30314;48.184;11.510;2023-11-18T01:42:17;3.27;;;2.43;;
7661;SDS011;30314;48.184;11.510;2023-11-18T01:44:44;3.60;;;2.70;;
7661;SDS011;30314;48.184;11.510;2023-11-18T01:47:11;2.63;;;2.10;;
7661;SDS011;30314;48.184;11.510;2023-11-18T01:49:39;4.90;;;3.37;;
7661;SDS011;30314;48.184;11.510;2023-11-18T01:52:07;3.73;;;2.20;;
7661;SDS011;30314;48.184;11.510;2023-11-18T01:54:35;3.20;;;2.60;;
7661;SDS011;30314;48.184;11.510;2023-11-18T01:57:04;3.37;;;2.53;;
7661;SDS011;30314;48.184;11.510;2023-11-18T01:59:33;4.30;;;2.97;;
7661;SDS011;30314;48.184;11.510;2023-11-18T02:02:00;6.00;;;2.53;;
7661;SDS011;30314;48.184;11.510;2023-11-18T02:04:28;2.73;;;2.43;;
7661;SDS011;30314;48.184;11.510;2023-11-18T02:06:56;3.90;;;2.70;;
7661;SDS011;30314;48.184;11.510;2023-11-18T02:09:23;3.10;;;2.30;;
7661;SDS011;30314;48.184;11.510;2023-11-18T02:11:57;3.20;;;2.90;;
7661;SDS011;30314;48.184;11.510;2023-11-18T02:14:37;2.20;;;1.97;;
7661;SDS011;30314;48.184;11.510;2023-11-18T02:17:06;3.70;;;2.67;;
7661;SDS011;30314;48.184;11.510;2023-11-18T02:19:37;3.67;;;2.80;;
7661;SDS011;30314;48.184;11.510;2023-11-18T02:22:06;3.13;;;2.53;;
7661;SDS011;30314;48.184;11.510;2023-11-18T02:24:34;2.70;;;2.03;;
7661;SDS011;30314;48.184;11.510;2023-11-18T02:27:04;4.50;;;2.97;;
7661;SDS011;30314;48.184;11.510;2023-11-18T02:29:35;3.70;;;2.53;;
7661;SDS011;30314;48.184;11.510;2023-11-18T02:35:09;3.20;;;2.20;;
7661;SDS011;30314;48.184;11.510;2023-11-18T02:37:40;3.77;;;2.30;;
7661;SDS011;30314;48.184;11.510;2023-11-18T02:40:11;3.93;;;2.53;;
7661;SDS011;30314;48.184;11.510;2023-11-18T02:42:43;3.10;;;2.63;;
7661;SDS011;30314;48.184;11.510;2023-11-18T02:45:11;6.10;;;3.00;;
7661;SDS011;30314;48.184;11.510;2023-11-18T02:47:43;4.17;;;2.97;;
7661;SDS011;30314;48.184;11.510;2023-11-18T02:50:11;5.20;;;2.70;;
7661;SDS011;30314;48.184;11.510;2023-11-18T02:52:39;4.17;;;3.20;;
7661;SDS011;30314;48.184;11.510;2023-11-18T02:55:07;3.53;;;2.53;;
7661;SDS011;30314;48.184;11.510;2023-11-18T02:57:35;3.47;;;2.43;;
7661;SDS011;30314;48.184;11.510;2023-11-18T03:00:06;5.70;;;2.50;;
7661;SDS011;30314;48.184;11.510;2023-11-18T03:02:43;3.87;;;2.63;;
7661;SDS011;30314;48.184;11.510;2023-11-18T03:05:09;4.40;;;2.77;;
7661;SDS011;30314;48.184;11.510;2023-11-18T03:07:40;3.47;;;2.30;;
7661;SDS011;30314;48.184;11.510;2023-11-18T03:10:07;3.10;;;2.80;;
7661;SDS011;30314;48.184;11.510;2023-11-18T03:12:47;3.33;;;2.43;;
7661;SDS011;30314;48.184;11.510;2023-11-18T03:15:19;2.90;;;2.43;;
7661;SDS011;30314;48.184;11.510;2023-11-18T03:17:51;4.23;;;2.80;;
7661;SDS011;30314;48.184;11.510;2023-11-18T03:20:19;3.90;;;2.50;;
7661;SDS011;30314;48.184;11.510;2023-11-18T03:22:49;4.40;;;2.57;;
7661;SDS011;30314;48.184;11.510;2023-11-18T03:25:17;3.40;;;2.40;;
7661;SDS011;30314;48.184;11.510;2023-11-18T03:27:45;4.53;;;2.77;;
7661;SDS011;30314;48.184;11.510;2023-11-18T03:30:12;3.40;;;2.40;;
7661;SDS011;30314;48.184;11.510;2023-11-18T03:32:39;3.60;;;2.40;;
7661;SDS011;30314;48.184;11.510;2023-11-18T03:35:07;4.30;;;2.83;;
7661;SDS011;30314;48.184;11.510;2023-11-18T03:37:36;3.00;;;2.40;;
7661;SDS011;30314;48.184;11.510;2023-11-18T03:40:08;2.90;;;2.07;;
7661;SDS011;30314;48.184;11.510;2023-11-18T03:42:36;4.60;;;3.23;;
7661;SDS011;30314;48.184;11.510;2023-11-18T03:45:03;3.10;;;2.20;;
7661;SDS011;30314;48.184;11.510;2023-11-18T03:47:31;3.50;;;2.80;;
7661;SDS011;30314;48.184;11.510;2023-11-18T03:49:58;4.77;;;2.97;;
7661;SDS011;30314;48.184;11.510;2023-11-18T03:52:25;3.77;;;2.90;;
7661;SDS011;30314;48.184;11.510;2023-11-18T03:54:52;5.30;;;3.30;;
7661;SDS011;30314;48.184;11.510;2023-11-18T03:57:18;5.60;;;3.43;;
7661;SDS011;30314;48.184;11.510;2023-11-18T03:59:45;4.23;;;3.03;;
7661;SDS011;30314;48.184;11.510;2023-11-18T04:02:12;4.50;;;3.00;;
7661;SDS011;30314;48.184;11.510;2023-11-18T04:04:38;5.20;;;3.90;;
7661;SDS011;30314;48.184;11.510;2023-11-18T04:07:05;3.97;;;3.10;;
7661;SDS011;30314;48.184;11.510;2023-11-18T04:09:33;5.83;;;3.67;;
7661;SDS011;30314;48.184;11.510;2023-11-18T04:11:59;5.07;;;3.80;;
7661;SDS011;30314;48.184;11.510;2023-11-18T04:14:26;8.20;;;3.40;;
7661;SDS011;30314;48.184;11.510;2023-11-18T04:16:53;5.63;;;3.83;;
7661;SDS011;30314;48.184;11.510;2023-11-18T04:19:21;4.90;;;3.53;;
7661;SDS011;30314;48.184;11.510;2023-11-18T04:21:47;5.60;;;3.77;;
7661;SDS011;30314;48.184;11.510;2023-11-18T04:24:15;6.23;;;3.60;;
7661;SDS011;30314;48.184;11.510;2023-11-18T04:26:42;7.60;;;4.13;;
7661;SDS011;30314;48.184;11.510;2023-11-18T04:29:08;4.37;;;3.40;;
7661;SDS011;30314;48.184;11.510;2023-11-18T04:31:35;5.83;;;3.50;;
7661;SDS011;30314;48.184;11.510;2023-11-18T04:34:03;6.67;;;3.53;;
7661;SDS011;30314;48.184;11.510;2023-11-18T04:36:30;5.23;;;3.70;;
7661;SDS011;30314;48.184;11.510;2023-11-18T04:39:00;6.70;;;3.90;;
7661;SDS011;30314;48.184;11.510;2023-11-18T04:41:28;5.40;;;3.40;;
7661;SDS011;30314;48.184;11.510;2023-11-18T04:43:54;6.60;;;4.07;;
7661;SDS011;30314;48.184;11.510;2023-11-18T04:46:21;5.23;;;3.87;;
7661;SDS011;30314;48.184;11.510;2023-11-18T04:48:48;5.27;;;3.53;;
7661;SDS011;30314;48.184;11.510;2023-11-18T04:51:15;4.93;;;3.40;;
7661;SDS011;30314;48.184;11.510;2023-11-18T04:53:43;5.53;;;3.67;;
7661;SDS011;30314;48.184;11.510;2023-11-18T04:56:11;6.33;;;4.20;;
7661;SDS011;30314;48.184;11.510;2023-11-18T04:58:38;6.17;;;3.93;;
7661;SDS011;30314;48.184;11.510;2023-11-18T05:01:05;7.73;;;4.00;;
7661;SDS011;30314;48.184;11.510;2023-11-18T05:03:32;7.00;;;4.10;;
7661;SDS011;30314;48.184;11.510;2023-11-18T05:05:59;6.00;;;4.43;;
7661;SDS011;30314;48.184;11.510;2023-11-18T05:08:26;6.00;;;4.57;;
7661;SDS011;30314;48.184;11.510;2023-11-18T05:10:52;6.33;;;3.30;;
7661;SDS011;30314;48.184;11.510;2023-11-18T05:13:20;5.00;;;3.20;;
7661;SDS011;30314;48.184;11.510;2023-11-18T05:15:48;4.80;;;3.87;;
7661;SDS011;30314;48.184;11.510;2023-11-18T05:18:16;4.70;;;3.43;;
7661;SDS011;30314;48.184;11.510;2023-11-18T05:20:43;5.13;;;3.40;;
7661;SDS011;30314;48.184;11.510;2023-11-18T05:23:10;5.27;;;3.40;;
7661;SDS011;30314;48.184;11.510;2023-11-18T05:25:42;5.90;;;3.97;;
7661;SDS011;30314;48.184;11.510;2023-11-18T05:28:12;7.43;;;4.17;;
7661;SDS011;30314;48.184;11.510;2023-11-18T05:30:41;7.00;;;4.27;;
7661;SDS011;30314;48.184;11.510;2023-11-18T05:33:09;5.60;;;3.73;;
7661;SDS011;30314;48.184;11.510;2023-11-18T05:35:41;6.30;;;4.07;;
7661;SDS011;30314;48.184;11.510;2023-11-18T05:38:18;5.23;;;3.60;;
7661;SDS011;30314;48.184;11.510;2023-11-18T05:40:48;7.50;;;5.10;;
7661;SDS011;30314;48.184;11.510;2023-11-18T05:43:25;6.77;;;3.97;;
7661;SDS011;30314;48.184;11.510;2023-11-18T05:45:56;7.50;;;4.00;;
7661;SDS011;30314;48.184;11.510;2023-11-18T05:48:44;5.17;;;3.77;;
7661;SDS011;30314;48.184;11.510;2023-11-18T05:51:11;6.30;;;4.10;;
7661;SDS011;30314;48.184;11.510;2023-11-18T05:53:44;5.10;;;4.00;;
7661;SDS011;30314;48.184;11.510;2023-11-18T05:56:12;5.30;;;3.43;;
7661;SDS011;30314;48.184;11.510;2023-11-18T05:58:40;8.67;;;3.70;;
7661;SDS011;30314;48.184;11.510;2023-11-18T06:01:07;5.90;;;4.00;;
7661;SDS011;30314;48.184;11.510;2023-11-18T06:03:34;8.40;;;4.90;;
7661;SDS011;30314;48.184;11.510;2023-11-18T06:06:08;6.20;;;4.27;;
7661;SDS011;30314;48.184;11.510;2023-11-18T06:08:36;6.47;;;4.70;;
7661;SDS011;30314;48.184;11.510;2023-11-18T06:11:08;10.23;;;4.30;;
7661;SDS011;30314;48.184;11.510;2023-11-18T06:13:43;10.23;;;4.20;;
7661;SDS011;30314;48.184;11.510;2023-11-18T06:16:13;11.33;;;5.20;;
7661;SDS011;30314;48.184;11.510;2023-11-18T06:18:44;6.83;;;4.87;;
7661;SDS011;30314;48.184;11.510;2023-11-18T06:21:14;6.70;;;4.10;;
7661;SDS011;30314;48.184;11.510;2023-11-18T06:23:42;6.30;;;4.20;;
7661;SDS011;30314;48.184;11.510;2023-11-18T06:26:09;6.70;;;4.40;;
7661;SDS011;30314;48.184;11.510;2023-11-18T06:28:38;8.00;;;4.47;;
7661;SDS011;30314;48.184;11.510;2023-11-18T06:31:05;6.97;;;4.40;;
7661;SDS011;30314;48.184;11.510;2023-11-18T06:33:41;8.30;;;4.33;;
7661;SDS011;30314;48.184;11.510;2023-11-18T06:38:40;8.13;;;4.70;;
7661;SDS011;30314;48.184;11.510;2023-11-18T06:41:07;7.57;;;4.83;;
7661;SDS011;30314;48.184;11.510;2023-11-18T06:43:42;7.60;;;4.70;;
7661;SDS011;30314;48.184;11.510;2023-11-18T06:46:23;6.43;;;4.33;;
7661;SDS011;30314;48.184;11.510;2023-11-18T06:48:52;6.13;;;4.63;;
7661;SDS011;30314;48.184;11.510;2023-11-18T06:51:21;6.73;;;4.70;;
7661;SDS011;30314;48.184;11.510;2023-11-18T06:53:51;7.40;;;4.77;;
7661;SDS011;30314;48.184;11.510;2023-11-18T06:56:21;7.80;;;4.03;;
7661;SDS011;30314;48.184;11.510;2023-11-18T06:58:48;5.57;;;4.30;;
7661;SDS011;30314;48.184;11.510;2023-11-18T07:01:15;7.47;;;4.20;;
7661;SDS011;30314;48.184;11.510;2023-11-18T07:03:43;7.80;;;4.70;;
7661;SDS011;30314;48.184;11.510;2023-11-18T07:06:10;6.57;;;3.80;;
7661;SDS011;30314;48.184;11.510;2023-11-18T07:08:40;6.67;;;4.30;;
7661;SDS011;30314;48.184;11.510;2023-11-18T07:11:07;8.73;;;5.27;;
7661;SDS011;30314;48.184;11.510;2023-11-18T07:13:33;8.93;;;4.57;;
7661;SDS011;30314;48.184;11.510;2023-11-18T07:16:00;6.37;;;4.10;;
7661;SDS011;30314;48.184;11.510;2023-11-18T07:18:29;6.10;;;3.90;;
7661;SDS011;30314;48.184;11.510;2023-11-18T07:21:01;6.03;;;3.90;;
7661;SDS011;30314;48.184;11.510;2023-11-18T07:23:34;7.53;;;4.40;;
7661;SDS011;30314;48.184;11.510;2023-11-18T07:26:00;7.33;;;3.97;;
7661;SDS011;30314;48.184;11.510;2023-11-18T07:28:30;6.83;;;4.37;;
7661;SDS011;30314;48.184;11.510;2023-11-18T07:30:57;6.40;;;4.23;;
7661;SDS011;30314;48.184;11.510;2023-11-18T07:33:26;7.17;;;4.70;;
7661;SDS011;30314;48.184;11.510;2023-11-18T07:35:53;10.00;;;5.43;;
7661;SDS011;30314;48.184;11.510;2023-11-18T07:38:21;8.90;;;4.50;;
7661;SDS011;30314;48.184;11.510;2023-11-18T07:40:48;7.70;;;4.80;;
7661;SDS011;30314;48.184;11.510;2023-11-18T07:43:15;6.73;;;4.30;;
7661;SDS011;30314;48.184;11.510;2023-11-18T07:45:42;7.17;;;4.63;;
7661;SDS011;30314;48.184;11.510;2023-11-18T07:48:09;7.63;;;5.17;;
7661;SDS011;30314;48.184;11.510;2023-11-18T07:50:39;8.53;;;4.73;;
7661;SDS011;30314;48.184;11.510;2023-11-18T07:53:10;9.17;;;4.63;;
7661;SDS011;30314;48.184;11.510;2023-11-18T07:55:37;5.23;;;4.10;;
7661;SDS011;30314;48.184;11.510;2023-11-18T07:58:06;7.30;;;4.33;;
7661;SDS011;30314;48.184;11.510;2023-11-18T08:00:37;6.93;;;4.43;;
7661;SDS011;30314;48.184;11.510;2023-11-18T08:03:09;7.77;;;5.10;;
7661;SDS011;30314;48.184;11.510;2023-11-18T08:05:39;6.33;;;4.60;;
7661;SDS011;30314;48.184;11.510;2023-11-18T08:08:10;8.40;;;5.20;;
7661;SDS011;30314;48.184;11.510;2023-11-18T08:10:38;6.30;;;4.20;;
7661;SDS011;30314;48.184;11.510;2023-11-18T08:13:06;8.10;;;4.87;;
7661;SDS011;30314;48.184;11.510;2023-11-18T08:15:34;6.03;;;4.43;;
7661;SDS011;30314;48.184;11.510;2023-11-18T08:18:01;5.80;;;4.37;;
7661;SDS011;30314;48.184;11.510;2023-11-18T08:20:29;6.73;;;4.60;;
7661;SDS011;30314;48.184;11.510;2023-11-18T08:22:56;6.60;;;5.27;;
7661;SDS011;30314;48.184;11.510;2023-11-18T08:25:23;7.33;;;5.30;;
7661;SDS011;30314;48.184;11.510;2023-11-18T08:27:50;7.17;;;4.73;;
7661;SDS011;30314;48.184;11.510;2023-11-18T08:30:16;6.33;;;4.03;;
7661;SDS011;30314;48.184;11.510;2023-11-18T08:32:45;7.47;;;4.80;;
7661;SDS011;30314;48.184;11.510;2023-11-18T08:35:13;7.37;;;3.93;;
7661;SDS011;30314;48.184;11.510;2023-11-18T08:37:41;6.60;;;4.70;;
7661;SDS011;30314;48.184;11.510;2023-11-18T08:40:09;6.93;;;4.40;;
7661;SDS011;30314;48.184;11.510;2023-11-18T08:42:43;7.33;;;3.80;;
7661;SDS011;30314;48.184;11.510;2023-11-18T08:45:18;5.37;;;3.57;;
7661;SDS011;30314;48.184;11.510;2023-11-18T08:47:54;6.33;;;4.40;;
7661;SDS011;30314;48.184;11.510;2023-11-18T08:50:21;6.30;;;3.50;;
7661;SDS011;30314;48.184;11.510;2023-11-18T08:52:52;7.70;;;4.30;;
7661;SDS011;30314;48.184;11.510;2023-11-18T08:55:26;5.87;;;3.73;;
7661;SDS011;30314;48.184;11.510;2023-11-18T08:58:09;6.00;;;3.87;;
7661;SDS011;30314;48.184;11.510;2023-11-18T09:00:49;6.37;;;4.30;;
7661;SDS011;30314;48.184;11.510;2023-11-18T09:03:24;4.60;;;3.00;;
7661;SDS011;30314;48.184;11.510;2023-11-18T09:05:56;4.77;;;3.60;;
7661;SDS011;30314;48.184;11.510;2023-11-18T09:08:25;4.10;;;3.30;;
7661;SDS011;30314;48.184;11.510;2023-11-18T09:10:58;5.33;;;4.00;;
7661;SDS011;30314;48.184;11.510;2023-11-18T09:13:26;6.37;;;4.00;;
7661;SDS011;30314;48.184;11.510;2023-11-18T09:15:58;4.90;;;3.20;;
7661;SDS011;30314;48.184;11.510;2023-11-18T09:18:26;3.70;;;2.80;;
7661;SDS011;30314;48.184;11.510;2023-11-18T09:21:00;3.93;;;3.17;;
7661;SDS011;30314;48.184;11.510;2023-11-18T09:23:32;3.87;;;2.63;;
7661;SDS011;30314;48.184;11.510;2023-11-18T09:26:01;3.80;;;2.83;;
7661;SDS011;30314;48.184;11.510;2023-11-18T09:28:29;7.93;;;3.10;;
7661;SDS011;30314;48.184;11.510;2023-11-18T09:30:56;5.10;;;3.10;;
7661;SDS011;30314;48.184;11.510;2023-11-18T09:33:29;9.97;;;2.90;;
7661;SDS011;30314;48.184;11.510;2023-11-18T09:36:01;3.33;;;2.87;;
7661;SDS011;30314;48.184;11.510;2023-11-18T09:38:29;4.80;;;3.37;;
7661;SDS011;30314;48.184;11.510;2023-11-18T09:40:57;2.93;;;2.20;;
7661;SDS011;30314;48.184;11.510;2023-11-18T09:43:32;3.63;;;2.40;;
7661;SDS011;30314;48.184;11.510;2023-11-18T09:46:09;2.43;;;1.77;;
7661;SDS011;30314;48.184;11.510;2023-11-18T09:48:46;3.00;;;1.70;;
7661;SDS011;30314;48.184;11.510;2023-11-18T09:51:22;2.90;;;2.00;;
7661;SDS011;30314;48.184;11.510;2023-11-18T09:53:52;3.03;;;2.30;;
7661;SDS011;30314;48.184;11.510;2023-11-18T09:56:23;3.30;;;2.77;;
7661;SDS011;30314;48.184;11.510;2023-11-18T09:59:11;3.80;;;2.67;;
7661;SDS011;30314;48.184;11.510;2023-11-18T10:01:45;3.03;;;2.03;;
7661;SDS011;30314;48.184;11.510;2023-11-18T10:04:20;2.40;;;1.87;;
7661;SDS011;30314;48.184;11.510;2023-11-18T10:06:47;3.60;;;1.90;;
7661;SDS011;30314;48.184;11.510;2023-11-18T10:09:16;2.10;;;1.53;;
7661;SDS011;30314;48.184;11.510;2023-11-18T10:11:47;2.13;;;1.70;;
7661;SDS011;30314;48.184;11.510;2023-11-18T10:14:14;3.20;;;2.20;;
7661;SDS011;30314;48.184;11.510;2023-11-18T10:16:44;3.77;;;2.07;;
7661;SDS011;30314;48.184;11.510;2023-11-18T10:19:14;2.23;;;1.93;;
7661;SDS011;30314;48.184;11.510;2023-11-18T10:21:44;3.70;;;1.80;;
7661;SDS011;30314;48.184;11.510;2023-11-18T10:24:15;2.97;;;1.37;;
7661;SDS011;30314;48.184;11.510;2023-11-18T10:26:54;1.70;;;1.33;;
7661;SDS011;30314;48.184;11.510;2023-11-18T10:29:24;4.37;;;2.00;;
7661;SDS011;30314;48.184;11.510;2023-11-18T10:32:07;2.87;;;1.50;;
7661;SDS011;30314;48.184;11.510;2023-11-18T10:34:42;4.80;;;2.73;;
7661;SDS011;30314;48.184;11.510;2023-11-18T10:37:09;1.70;;;1.30;;
7661;SDS011;30314;48.184;11.510;2023-11-18T10:39:37;3.30;;;1.60;;
7661;SDS011;30314;48.184;11.510;2023-11-18T10:42:04;81.73;;;6.33;;
7661;SDS011;30314;48.184;11.510;2023-11-18T10:44:31;2.30;;;1.20;;
7661;SDS011;30314;48.184;11.510;2023-11-18T10:46:58;2.60;;;1.20;;
7661;SDS011;30314;48.184;11.510;2023-11-18T10:49:28;2.00;;;1.30;;
7661;SDS011;30314;48.184;11.510;2023-11-18T10:52:03;3.07;;;1.60;;
7661;SDS011;30314;48.184;11.510;2023-11-18T10:54:34;2.47;;;1.33;;
7661;SDS011;30314;48.184;11.510;2023-11-18T10:57:01;3.87;;;2.90;;
7661;SDS011;30314;48.184;11.510;2023-11-18T10:59:34;3.63;;;1.37;;
7661;SDS011;30314;48.184;11.510;2023-11-18T11:02:01;2.33;;;1.33;;
7661;SDS011;30314;48.184;11.510;2023-11-18T11:04:45;2.60;;;1.50;;
7661;SDS011;30314;48.184;11.510;2023-11-18T11:07:12;4.13;;;1.67;;
7661;SDS011;30314;48.184;11.510;2023-11-18T11:09:41;2.70;;;2.00;;
7661;SDS011;30314;48.184;11.510;2023-11-18T11:12:12;2.17;;;0.93;;
7661;SDS011;30314;48.184;11.510;2023-11-18T11:14:46;2.00;;;1.37;;
7661;SDS011;30314;48.184;11.510;2023-11-18T11:17:23;2.03;;;1.10;;
7661;SDS011;30314;48.184;11.510;2023-11-18T11:20:06;1.80;;;1.30;;
7661;SDS011;30314;48.184;11.510;2023-11-18T11:23:01;1.93;;;0.93;;
7661;SDS011;30314;48.184;11.510;2023-11-18T11:28:27;2.20;;;1.10;;
7661;SDS011;30314;48.184;11.510;2023-11-18T11:31:16;2.10;;;0.97;;
7661;SDS011;30314;48.184;11.510;2023-11-18T11:33:55;2.80;;;1.63;;
7661;SDS011;30314;48.184;11.510;2023-11-18T11:36:33;1.73;;;1.23;;
7661;SDS011;30314;48.184;11.510;2023-11-18T11:39:08;1.67;;;1.03;;
7661;SDS011;30314;48.184;11.510;2023-11-18T11:41:45;2.47;;;1.03;;
7661;SDS011;30314;48.184;11.510;2023-11-18T11:44:13;2.63;;;1.23;;
7661;SDS011;30314;48.184;11.510;2023-11-18T11:46:40;1.60;;;1.10;;
7661;SDS011;30314;48.184;11.510;2023-11-18T11:49:09;1.80;;;0.80;;
7661;SDS011;30314;48.184;11.510;2023-11-18T11:52:07;1.90;;;0.67;;
7661;SDS011;30314;48.184;11.510;2023-11-18T11:54:40;1.47;;;0.60;;
7661;SDS011;30314;48.184;11.510;2023-11-18T11:57:11;1.50;;;0.70;;
7661;SDS011;30314;48.184;11.510;2023-11-18T12:02:14;2.93;;;1.37;;
7661;SDS011;30314;48.184;11.510;2023-11-18T12:04:45;3.10;;;1.00;;
7661;SDS011;30314;48.184;11.510;2023-11-18T12:07:14;2.30;;;0.80;;
7661;SDS011;30314;48.184;11.510;2023-11-18T12:09:46;1.67;;;0.60;;
7661;SDS011;30314;48.184;11.510;2023-11-18T12:12:17;1.20;;;0.40;;
7661;SDS011;30314;48.184;11.510;2023-11-18T12:15:04;2.30;;;0.80;;
7661;SDS011;30314;48.184;11.510;2023-11-18T12:23:22;4.40;;;1.03;;
7661;SDS011;30314;48.184;11.510;2023-11-18T12:25:52;2.30;;;1.20;;
7661;SDS011;30314;48.184;11.510;2023-11-18T12:28:28;2.17;;;0.70;;
7661;SDS011;30314;48.184;11.510;2023-11-18T12:31:02;2.67;;;0.90;;
7661;SDS011;30314;48.184;11.510;2023-11-18T12:37:12;3.07;;;1.03;;
7661;SDS011;30314;48.184;11.510;2023-11-18T12:48:13;1.80;;;1.23;;
7661;SDS011;30314;48.184;11.510;2023-11-18T12:50:41;4.13;;;1.07;;
7661;SDS011;30314;48.184;11.510;2023-11-18T12:53:10;2.03;;;0.80;;
7661;SDS011;30314;48.184;11.510;2023-11-18T12:55:41;2.07;;;1.13;;
7661;SDS011;30314;48.184;11.510;2023-11-18T12:58:08;4.27;;;1.37;;
7661;SDS011;30314;48.184;11.510;2023-11-18T13:00:39;1.67;;;1.03;;
7661;SDS011;30314;48.184;11.510;2023-11-18T13:03:09;1.10;;;0.60;;
7661;SDS011;30314;48.184;11.510;2023-11-18T13:05:37;2.07;;;0.70;;
7661;SDS011;30314;48.184;11.510;2023-11-18T13:08:04;2.63;;;0.50;;
7661;SDS011;30314;48.184;11.510;2023-11-18T13:10:31;3.03;;;0.83;;
7661;SDS011;30314;48.184;11.510;2023-11-18T13:12:57;2.80;;;1.17;;
7661;SDS011;30314;48.184;11.510;2023-11-18T13:15:24;2.07;;;1.20;;
7661;SDS011;30314;48.184;11.510;2023-11-18T13:18:01;2.67;;;0.60;;
7661;SDS011;30314;48.184;11.510;2023-11-18T13:20:33;2.40;;;1.10;;
7661;SDS011;30314;48.184;11.510;2023-11-18T13:23:02;2.50;;;0.90;;
7661;SDS011;30314;48.184;11.510;2023-11-18T13:25:35;4.73;;;1.00;;
7661;SDS011;30314;48.184;11.510;2023-11-18T13:28:05;1.57;;;0.90;;
7661;SDS011;30314;48.184;11.510;2023-11-18T13:30:36;2.30;;;1.00;;
7661;SDS011;30314;48.184;11.510;2023-11-18T13:33:06;3.03;;;0.90;;
7661;SDS011;30314;48.184;11.510;2023-11-18T13:35:34;2.20;;;1.10;;
7661;SDS011;30314;48.184;11.510;2023-11-18T13:38:01;1.10;;;0.80;;
7661;SDS011;30314;48.184;11.510;2023-11-18T13:40:46;2.33;;;0.80;;
7661;SDS011;30314;48.184;11.510;2023-11-18T13:43:14;3.40;;;1.50;;
7661;SDS011;30314;48.184;11.510;2023-11-18T13:45:41;2.63;;;1.73;;
7661;SDS011;30314;48.184;11.510;2023-11-18T13:48:10;2.27;;;1.40;;
7661;SDS011;30314;48.184;11.510;2023-11-18T13:50:40;1.80;;;0.90;;
7661;SDS011;30314;48.184;11.510;2023-11-18T13:53:07;1.70;;;1.07;;
7661;SDS011;30314;48.184;11.510;2023-11-18T13:55:34;2.07;;;1.10;;
7661;SDS011;30314;48.184;11.510;2023-11-18T13:58:02;1.80;;;1.00;;
7661;SDS011;30314;48.184;11.510;2023-11-18T14:00:31;1.37;;;1.00;;
7661;SDS011;30314;48.184;11.510;2023-11-18T14:02:58;1.70;;;0.80;;
7661;SDS011;30314;48.184;11.510;2023-11-18T14:05:26;1.40;;;0.90;;
7661;SDS011;30314;48.184;11.510;2023-11-18T14:07:53;3.30;;;0.80;;
7661;SDS011;30314;48.184;11.510;2023-11-18T14:10:22;2.00;;;1.17;;
7661;SDS011;30314;48.184;11.510;2023-11-18T14:13:03;2.43;;;0.80;;
7661;SDS011;30314;48.184;11.510;2023-11-18T14:15:39;1.90;;;0.87;;
7661;SDS011;30314;48.184;11.510;2023-11-18T14:18:08;1.10;;;0.73;;
7661;SDS011;30314;48.184;11.510;2023-11-18T14:20:35;1.83;;;1.10;;
7661;SDS011;30314;48.184;11.510;2023-11-18T14:23:02;2.63;;;1.00;;
7661;SDS011;30314;48.184;11.510;2023-11-18T14:25:33;2.97;;;1.43;;
7661;SDS011;30314;48.184;11.510;2023-11-18T14:28:00;2.80;;;1.07;;
7661;SDS011;30314;48.184;11.510;2023-11-18T14:30:29;2.83;;;1.17;;
7661;SDS011;30314;48.184;11.510;2023-11-18T14:32:56;4.10;;;0.73;;
7661;SDS011;30314;48.184;11.510;2023-11-18T14:35:23;1.47;;;0.80;;
7661;SDS011;30314;48.184;11.510;2023-11-18T14:37:55;1.63;;;0.80;;
7661;SDS011;30314;48.184;11.510;2023-11-18T14:40:25;1.70;;;0.80;;
7661;SDS011;30314;48.184;11.510;2023-11-18T14:42:52;1.40;;;0.80;;
7661;SDS011;30314;48.184;11.510;2023-11-18T14:45:19;1.20;;;0.77;;
7661;SDS011;30314;48.184;11.510;2023-11-18T14:47:46;1.90;;;0.77;;
7661;SDS011;30314;48.184;11.510;2023-11-18T14:50:20;2.37;;;1.10;;
7661;SDS011;30314;48.184;11.510;2023-11-18T14:52:47;2.57;;;1.40;;
7661;SDS011;30314;48.184;11.510;2023-11-18T14:55:18;2.60;;;0.90;;
7661;SDS011;30314;48.184;11.510;2023-11-18T14:57:44;3.47;;;0.97;;
7661;SDS011;30314;48.184;11.510;2023-11-18T15:00:12;2.23;;;1.03;;
7661;SDS011;30314;48.184;11.510;2023-11-18T15:02:50;2.00;;;0.83;;
7661;SDS011;30314;48.184;11.510;2023-11-18T15:05:21;1.77;;;1.10;;
7661;SDS011;30314;48.184;11.510;2023-11-18T15:07:50;5.07;;;1.20;;
7661;SDS011;30314;48.184;11.510;2023-11-18T15:10:20;4.13;;;1.80;;
7661;SDS011;30314;48.184;11.510;2023-11-18T15:12:49;2.30;;;1.10;;
7661;SDS011;30314;48.184;11.510;2023-11-18T15:15:28;2.03;;;1.00;;
7661;SDS011;30314;48.184;11.510;2023-11-18T15:18:01;1.20;;;0.90;;
7661;SDS011;30314;48.184;11.510;2023-11-18T15:20:36;1.93;;;1.20;;
7661;SDS011;30314;48.184;11.510;2023-11-18T15:23:03;2.40;;;0.90;;
7661;SDS011;30314;48.184;11.510;2023-11-18T15:25:31;1.30;;;1.10;;
7661;SDS011;30314;48.184;11.510;2023-11-18T15:27:58;1.40;;;0.80;;
7661;SDS011;30314;48.184;11.510;2023-11-18T15:30:25;1.70;;;1.10;;
7661;SDS011;30314;48.184;11.510;2023-11-18T15:32:52;3.17;;;1.10;;